createdAt,value
2017-10-20T00:01:15.486Z,15.60
2017-10-20T00:03:43.029Z,13.90
2017-10-20T00:06:10.570Z,14.13
2017-10-20T00:08:38.149Z,14.25
2017-10-20T00:11:05.850Z,15.85
2017-10-20T00:13:33.438Z,13.55
2017-10-20T00:16:01.991Z,17.33
2017-10-20T00:18:29.542Z,13.30
2017-10-20T00:20:57.121Z,14.07
2017-10-20T00:23:25.449Z,15.27
2017-10-20T00:25:54.154Z,12.43
2017-10-20T00:28:21.702Z,13.52
2017-10-20T00:30:49.531Z,15.15
2017-10-20T00:33:18.474Z,14.20
2017-10-20T00:35:46.025Z,11.52
2017-10-20T00:38:13.560Z,12.23
2017-10-20T00:40:41.153Z,16.05
2017-10-20T00:43:08.695Z,11.02
2017-10-20T00:45:36.237Z,13.52
2017-10-20T00:48:04.025Z,11.12
2017-10-20T00:50:31.636Z,11.20
2017-10-20T00:52:59.946Z,11.32
2017-10-20T00:55:27.489Z,16.62
2017-10-20T00:57:56.325Z,14.65
2017-10-20T01:00:23.867Z,15.63
2017-10-20T01:02:51.406Z,13.70
2017-10-20T01:05:19.514Z,12.45
2017-10-20T01:07:47.058Z,13.50
2017-10-20T01:10:15.394Z,11.35
2017-10-20T01:12:44.194Z,18.15
2017-10-20T01:15:12.505Z,16.77
2017-10-20T01:17:40.049Z,14.68
2017-10-20T01:20:07.636Z,10.70
2017-10-20T01:22:35.189Z,15.38
2017-10-20T01:25:03.377Z,12.23
2017-10-20T01:27:30.938Z,11.07
2017-10-20T01:29:58.478Z,14.05
2017-10-20T01:32:26.263Z,11.68
2017-10-20T01:34:54.334Z,14.63
2017-10-20T01:37:21.877Z,12.50
2017-10-20T01:39:49.426Z,16.20
2017-10-20T01:42:17.358Z,11.07
2017-10-20T01:44:45.666Z,12.20
2017-10-20T01:47:13.214Z,13.00
2017-10-20T01:49:40.797Z,14.57
2017-10-20T01:52:08.346Z,12.35
2017-10-20T01:54:35.925Z,10.13
2017-10-20T01:57:03.502Z,13.18
2017-10-20T01:59:31.054Z,12.27
2017-10-20T02:01:58.597Z,10.20
2017-10-20T02:04:26.336Z,11.10
2017-10-20T02:06:53.924Z,11.98
2017-10-20T02:09:21.471Z,10.57
2017-10-20T02:11:49.086Z,10.75
2017-10-20T02:14:16.625Z,10.13
2017-10-20T02:16:44.158Z,10.95
2017-10-20T02:19:12.022Z,11.02
2017-10-20T02:21:39.558Z,11.40
2017-10-20T02:24:07.910Z,12.07
2017-10-20T02:26:35.455Z,11.85
2017-10-20T02:29:03.046Z,10.45
2017-10-20T02:31:31.526Z,14.87
2017-10-20T02:33:59.877Z,15.75
2017-10-20T02:36:27.430Z,13.95
2017-10-20T02:38:55.078Z,21.17
2017-10-20T02:41:22.618Z,13.82
2017-10-20T02:43:50.517Z,11.88
2017-10-20T02:46:18.062Z,12.23
2017-10-20T02:48:45.606Z,14.32
2017-10-20T02:51:13.206Z,12.32
2017-10-20T02:53:40.747Z,10.75
2017-10-20T02:56:08.290Z,12.82
2017-10-20T02:58:35.949Z,14.82
2017-10-20T03:01:03.796Z,18.50
2017-10-20T03:03:32.105Z,10.35
2017-10-20T03:05:59.646Z,11.55
2017-10-20T03:08:27.231Z,9.88
2017-10-20T03:10:55.067Z,10.18
2017-10-20T03:13:22.606Z,10.80
2017-10-20T03:15:50.918Z,10.43
2017-10-20T03:18:18.560Z,9.77
2017-10-20T03:20:46.868Z,9.90
2017-10-20T03:23:15.998Z,10.77
2017-10-20T03:25:43.533Z,10.57
2017-10-20T03:28:11.121Z,11.82
2017-10-20T03:30:39.022Z,12.45
2017-10-20T03:33:07.321Z,9.18
2017-10-20T03:35:35.400Z,10.40
2017-10-20T03:38:02.946Z,9.52
2017-10-20T03:40:30.485Z,10.00
2017-10-20T03:42:58.825Z,9.60
2017-10-20T03:45:26.369Z,10.52
2017-10-20T03:47:53.961Z,9.73
2017-10-20T03:50:21.497Z,9.63
2017-10-20T03:52:49.186Z,11.02
2017-10-20T03:55:16.963Z,9.68
2017-10-20T03:57:45.310Z,8.75
2017-10-20T04:00:12.851Z,10.10
2017-10-20T04:02:40.479Z,10.98
2017-10-20T04:05:08.786Z,9.13
2017-10-20T04:07:36.371Z,8.63
2017-10-20T04:10:04.233Z,10.60
2017-10-20T04:12:31.774Z,10.00
2017-10-20T04:14:59.320Z,10.07
2017-10-20T04:17:26.929Z,10.52
2017-10-20T04:19:54.475Z,9.45
2017-10-20T04:22:22.005Z,12.30
2017-10-20T04:24:55.227Z,10.52
2017-10-20T04:27:22.775Z,10.10
2017-10-20T04:29:50.326Z,11.95
2017-10-20T04:32:18.170Z,11.50
2017-10-20T04:34:45.713Z,11.30
2017-10-20T04:37:14.017Z,11.45
2017-10-20T04:39:41.603Z,11.10
2017-10-20T04:42:09.154Z,15.85
2017-10-20T04:44:37.241Z,14.32
2017-10-20T04:47:04.785Z,10.55
2017-10-20T04:49:32.549Z,13.23
2017-10-20T04:52:00.128Z,13.55
2017-10-20T04:54:28.205Z,12.37
2017-10-20T04:56:55.750Z,12.05
2017-10-20T04:59:23.304Z,13.13
2017-10-20T05:01:52.309Z,13.77
2017-10-20T05:04:20.164Z,14.30
2017-10-20T05:06:47.709Z,13.43
2017-10-20T05:09:15.249Z,11.70
2017-10-20T05:11:43.752Z,13.15
2017-10-20T05:14:11.301Z,14.10
2017-10-20T05:16:38.881Z,14.98
2017-10-20T05:19:06.434Z,15.65
2017-10-20T05:21:35.555Z,13.73
2017-10-20T05:24:03.098Z,14.30
2017-10-20T05:26:30.765Z,14.07
2017-10-20T05:28:58.305Z,14.30
2017-10-20T05:31:31.255Z,13.88
2017-10-20T05:33:59.571Z,12.95
2017-10-20T05:36:27.118Z,14.25
2017-10-20T05:38:56.054Z,14.32
2017-10-20T05:41:23.594Z,16.98
2017-10-20T05:43:51.198Z,14.85
2017-10-20T05:46:18.748Z,15.52
2017-10-20T05:48:46.666Z,15.57
2017-10-20T05:51:14.205Z,16.05
2017-10-20T05:53:50.642Z,14.98
2017-10-20T05:56:18.193Z,13.95
2017-10-20T05:58:45.737Z,14.63
2017-10-20T06:01:13.317Z,15.30
2017-10-20T06:03:40.905Z,19.62
2017-10-20T06:06:09.218Z,15.82
2017-10-20T06:08:36.806Z,17.75
2017-10-20T06:11:04.351Z,16.25
2017-10-20T06:13:32.133Z,19.30
2017-10-20T06:15:59.716Z,16.33
2017-10-20T06:18:27.257Z,15.40
2017-10-20T06:20:54.850Z,19.35
2017-10-20T06:23:23.161Z,18.12
2017-10-20T06:25:50.749Z,25.27
2017-10-20T06:28:18.398Z,23.50
2017-10-20T06:30:46.176Z,18.25
2017-10-20T06:33:18.602Z,25.20
2017-10-20T06:35:46.914Z,18.60
2017-10-20T06:38:14.456Z,18.83
2017-10-20T06:40:42.037Z,21.12
2017-10-20T06:43:09.613Z,19.00
2017-10-20T06:45:37.161Z,26.23
2017-10-20T06:48:04.886Z,20.37
2017-10-20T06:50:33.194Z,17.85
2017-10-20T06:53:03.263Z,17.12
2017-10-20T06:55:31.133Z,18.00
2017-10-20T06:58:01.936Z,18.10
2017-10-20T07:00:29.482Z,18.40
2017-10-20T07:02:57.361Z,17.23
2017-10-20T07:05:24.913Z,16.37
2017-10-20T07:07:52.469Z,16.60
2017-10-20T07:10:20.211Z,17.15
2017-10-20T07:12:47.800Z,15.85
2017-10-20T07:15:16.705Z,15.02
2017-10-20T07:17:44.282Z,16.05
2017-10-20T07:20:29.628Z,16.80
2017-10-20T07:22:57.194Z,15.25
2017-10-20T07:25:24.835Z,15.70
2017-10-20T07:27:56.107Z,18.85
2017-10-20T07:30:25.065Z,16.83
2017-10-20T07:32:52.606Z,16.83
2017-10-20T07:35:20.960Z,16.27
2017-10-20T07:37:49.717Z,16.58
2017-10-20T07:40:18.138Z,15.75
2017-10-20T07:42:46.454Z,17.02
2017-10-20T07:45:14.013Z,13.70
2017-10-20T07:47:41.878Z,17.73
2017-10-20T07:50:11.926Z,14.27
2017-10-20T07:52:39.533Z,14.43
2017-10-20T07:55:07.891Z,14.10
2017-10-20T07:57:35.680Z,14.38
2017-10-20T08:00:04.067Z,14.00
2017-10-20T08:02:31.617Z,15.52
2017-10-20T08:04:59.934Z,13.55
2017-10-20T08:07:27.606Z,14.10
2017-10-20T08:09:55.274Z,14.60
2017-10-20T08:12:22.858Z,13.93
2017-10-20T08:14:50.409Z,14.00
2017-10-20T08:17:18.006Z,14.32
2017-10-20T08:19:46.322Z,15.73
2017-10-20T08:22:13.915Z,15.30
2017-10-20T08:24:41.464Z,14.18
2017-10-20T08:27:09.126Z,16.48
2017-10-20T08:29:36.688Z,14.20
2017-10-20T08:32:04.768Z,15.20
2017-10-20T08:34:32.318Z,13.98
2017-10-20T08:36:59.905Z,15.10
2017-10-20T08:39:28.658Z,19.37
2017-10-20T08:41:56.223Z,14.38
2017-10-20T08:44:23.776Z,14.07
2017-10-20T08:46:51.866Z,14.45
2017-10-20T08:49:19.422Z,15.38
2017-10-20T08:51:46.965Z,15.35
2017-10-20T08:54:14.559Z,16.65
2017-10-20T08:56:42.151Z,15.35
2017-10-20T08:59:09.701Z,16.40
2017-10-20T09:01:38.434Z,15.07
2017-10-20T09:04:06.013Z,15.57
2017-10-20T09:06:33.561Z,18.52
2017-10-20T09:09:01.220Z,17.27
2017-10-20T09:11:28.945Z,17.67
2017-10-20T09:13:56.518Z,18.77
2017-10-20T09:16:24.075Z,17.67
2017-10-20T09:18:53.173Z,16.10
2017-10-20T09:21:20.726Z,20.75
2017-10-20T09:23:48.279Z,15.25
2017-10-20T09:26:15.939Z,17.75
2017-10-20T09:28:43.529Z,16.62
2017-10-20T09:31:11.365Z,18.08
2017-10-20T09:33:38.952Z,14.15
2017-10-20T09:36:06.495Z,14.93
2017-10-20T09:38:34.092Z,13.65
2017-10-20T09:41:01.637Z,13.00
2017-10-20T09:43:29.192Z,15.07
2017-10-20T09:45:56.925Z,12.15
2017-10-20T09:48:25.290Z,94.97
2017-10-20T09:50:53.639Z,13.00
2017-10-20T09:53:21.183Z,15.27
2017-10-20T09:55:49.076Z,12.75
2017-10-20T09:58:16.622Z,22.42
2017-10-20T10:00:44.165Z,19.10
2017-10-20T10:03:11.813Z,10.77
2017-10-20T10:05:39.358Z,19.83
2017-10-20T10:08:07.370Z,13.90
2017-10-20T10:10:34.914Z,7.20
2017-10-20T10:13:02.464Z,10.80
2017-10-20T10:15:30.262Z,7.85
2017-10-20T10:17:57.797Z,4.45
2017-10-20T10:20:25.450Z,8.70
2017-10-20T10:22:53.784Z,10.38
2017-10-20T10:25:21.366Z,8.77
2017-10-20T10:27:49.679Z,4.87
2017-10-20T10:30:17.618Z,4.03
2017-10-20T10:32:45.318Z,5.55
2017-10-20T10:35:12.853Z,5.30
2017-10-20T10:37:40.493Z,14.35
2017-10-20T10:40:09.138Z,8.50
2017-10-20T10:42:36.690Z,10.98
2017-10-20T10:45:04.242Z,5.20
2017-10-20T10:47:32.334Z,4.78
2017-10-20T10:49:59.913Z,2.83
2017-10-20T10:52:27.458Z,7.40
2017-10-20T10:54:55.502Z,8.75
2017-10-20T10:57:23.054Z,5.45
2017-10-20T10:59:50.608Z,1.77
2017-10-20T11:02:18.965Z,4.37
2017-10-20T11:04:47.266Z,9.20
2017-10-20T11:07:26.950Z,2.70
2017-10-20T11:10:06.360Z,4.40
2017-10-20T11:12:43.699Z,18.52
2017-10-20T11:15:12.023Z,8.50
2017-10-20T11:17:39.623Z,3.70
2017-10-20T11:20:07.167Z,4.03
2017-10-20T11:22:34.749Z,3.67
2017-10-20T11:25:02.331Z,2.35
2017-10-20T11:27:30.706Z,3.12
2017-10-20T11:29:59.020Z,2.47
2017-10-20T11:32:26.657Z,2.42
2017-10-20T11:34:54.831Z,2.30
2017-10-20T11:37:22.385Z,4.80
2017-10-20T11:39:50.698Z,6.30
2017-10-20T11:42:18.599Z,3.70
2017-10-20T11:44:46.150Z,2.42
2017-10-20T11:47:13.701Z,6.40
2017-10-20T11:49:41.434Z,1.75
2017-10-20T11:52:08.998Z,4.62
2017-10-20T11:54:36.833Z,1.23
2017-10-20T11:57:05.165Z,3.90
2017-10-20T11:59:32.702Z,4.22
2017-10-20T12:02:00.286Z,2.50
2017-10-20T12:04:27.870Z,2.22
2017-10-20T12:06:55.413Z,1.42
2017-10-20T12:09:28.402Z,2.78
2017-10-20T12:11:55.946Z,2.25
2017-10-20T12:14:23.486Z,2.55
2017-10-20T12:16:51.190Z,4.78
2017-10-20T12:19:18.749Z,2.67
2017-10-20T12:21:46.342Z,1.67
2017-10-20T12:24:14.668Z,1.25
2017-10-20T12:26:42.400Z,2.15
2017-10-20T12:29:09.952Z,2.33
2017-10-20T12:31:37.867Z,1.33
2017-10-20T12:34:05.421Z,2.25
2017-10-20T12:36:33.022Z,3.65
2017-10-20T12:39:01.390Z,3.67
2017-10-20T12:41:28.948Z,1.25
2017-10-20T12:43:56.903Z,3.78
2017-10-20T12:46:24.457Z,4.95
2017-10-20T12:48:52.785Z,2.50
2017-10-20T12:51:21.091Z,3.05
2017-10-20T12:53:48.627Z,1.40
2017-10-20T12:56:16.478Z,2.10
2017-10-20T12:58:44.829Z,1.25
2017-10-20T13:01:12.386Z,1.50
2017-10-20T13:03:40.038Z,2.37
2017-10-20T13:06:07.578Z,3.17
2017-10-20T13:08:35.189Z,1.98
2017-10-20T13:11:03.506Z,1.08
2017-10-20T13:13:31.097Z,1.65
2017-10-20T13:15:58.684Z,1.60
2017-10-20T13:18:26.225Z,1.85
2017-10-20T13:20:54.089Z,3.75
2017-10-20T13:23:21.638Z,2.53
2017-10-20T13:25:49.222Z,2.42
2017-10-20T13:28:16.801Z,1.87
2017-10-20T13:30:45.250Z,5.43
2017-10-20T13:33:12.844Z,1.33
2017-10-20T13:35:41.166Z,1.95
2017-10-20T13:38:08.873Z,2.15
2017-10-20T13:40:36.422Z,1.58
2017-10-20T13:43:04.014Z,2.25
2017-10-20T13:45:32.357Z,3.15
2017-10-20T13:47:59.898Z,3.28
2017-10-20T13:50:27.909Z,5.93
2017-10-20T13:52:55.444Z,2.37
2017-10-20T13:55:23.073Z,2.47
2017-10-20T13:57:50.756Z,7.62
2017-10-20T14:00:18.340Z,2.28
2017-10-20T14:02:45.882Z,2.87
2017-10-20T14:05:13.758Z,3.45
2017-10-20T14:07:41.330Z,3.67
2017-10-20T14:10:08.886Z,27.05
2017-10-20T14:12:36.724Z,3.75
2017-10-20T14:15:04.610Z,6.12
2017-10-20T14:17:32.150Z,3.10
2017-10-20T14:19:59.691Z,2.45
2017-10-20T14:22:27.281Z,2.20
2017-10-20T14:24:55.253Z,1.20
2017-10-20T14:27:22.794Z,2.72
2017-10-20T14:29:50.330Z,6.12
2017-10-20T14:32:18.068Z,4.22
2017-10-20T14:34:45.626Z,3.47
2017-10-20T14:37:13.413Z,2.30
2017-10-20T14:39:41.723Z,4.30
2017-10-20T14:42:09.310Z,3.70
2017-10-20T14:44:36.849Z,2.45
2017-10-20T14:47:04.435Z,3.05
2017-10-20T14:49:31.986Z,3.95
2017-10-20T14:51:59.777Z,4.07
2017-10-20T14:54:27.541Z,1.87
2017-10-20T14:56:55.126Z,4.18
2017-10-20T14:59:22.701Z,4.43
2017-10-20T15:01:50.278Z,3.78
2017-10-20T15:04:17.817Z,3.37
2017-10-20T15:06:45.530Z,3.28
2017-10-20T15:09:13.126Z,3.35
2017-10-20T15:11:41.427Z,1.98
2017-10-20T15:14:09.138Z,1.42
2017-10-20T15:16:36.750Z,3.20
2017-10-20T15:19:04.355Z,3.00
2017-10-20T15:21:31.954Z,4.03
2017-10-20T15:23:59.506Z,2.80
2017-10-20T15:26:27.971Z,5.47
2017-10-20T15:28:56.296Z,3.97
2017-10-20T15:31:24.002Z,2.75
2017-10-20T15:33:51.563Z,2.87
2017-10-20T15:36:19.178Z,4.28
2017-10-20T15:38:46.768Z,5.53
2017-10-20T15:41:14.394Z,4.28
2017-10-20T15:43:41.953Z,1.55
2017-10-20T15:46:10.690Z,2.45
2017-10-20T15:48:38.306Z,2.37
2017-10-20T15:51:06.686Z,2.75
2017-10-20T15:53:34.467Z,4.57
2017-10-20T15:56:02.460Z,3.05
2017-10-20T15:58:30.026Z,4.22
2017-10-20T16:00:58.922Z,2.45
2017-10-20T16:03:26.656Z,4.30
2017-10-20T16:05:54.194Z,4.70
2017-10-20T16:08:21.770Z,1.85
2017-10-20T16:10:49.356Z,3.60
2017-10-20T16:13:20.832Z,4.05
2017-10-20T16:15:49.599Z,2.75
2017-10-20T16:18:17.129Z,3.05
2017-10-20T16:20:44.829Z,4.07
2017-10-20T16:23:12.375Z,3.42
2017-10-20T16:25:40.221Z,3.08
2017-10-20T16:28:07.858Z,3.87
2017-10-20T16:30:35.463Z,8.30
2017-10-20T16:36:05.705Z,10.73
2017-10-20T16:38:33.915Z,4.45
2017-10-20T16:41:01.866Z,8.75
2017-10-20T16:43:29.409Z,4.80
2017-10-20T16:45:56.957Z,5.25
2017-10-20T16:48:24.540Z,4.07
2017-10-20T16:50:52.099Z,3.92
2017-10-20T16:53:19.836Z,4.55
2017-10-20T16:55:48.138Z,4.90
2017-10-20T16:58:16.101Z,3.42
2017-10-20T17:00:43.676Z,4.15
2017-10-20T17:03:11.320Z,3.72
2017-10-20T17:05:38.891Z,5.30
2017-10-20T17:08:06.959Z,8.52
2017-10-20T17:10:34.511Z,6.28
2017-10-20T17:13:02.214Z,5.53
2017-10-20T17:15:30.556Z,2.80
2017-10-20T17:17:58.116Z,7.57
2017-10-20T17:20:25.706Z,5.32
2017-10-20T17:25:45.945Z,7.30
2017-10-20T17:28:13.481Z,4.75
2017-10-20T17:30:41.908Z,8.40
2017-10-20T17:33:09.489Z,4.60
2017-10-20T17:35:37.027Z,3.53
2017-10-20T17:38:04.609Z,4.20
2017-10-20T17:40:32.165Z,4.47
2017-10-20T17:43:00.041Z,4.95
2017-10-20T17:45:27.664Z,4.22
2017-10-20T17:47:55.333Z,5.62
2017-10-20T17:50:22.901Z,4.00
2017-10-20T17:52:50.886Z,9.82
2017-10-20T17:55:18.762Z,6.97
2017-10-20T17:57:46.307Z,6.68
2017-10-20T18:00:14.057Z,5.03
2017-10-20T18:02:41.595Z,7.25
2017-10-20T18:05:09.206Z,6.95
2017-10-20T18:07:36.754Z,4.30
2017-10-20T18:10:08.040Z,5.40
2017-10-20T18:12:37.639Z,5.85
2017-10-20T18:15:05.891Z,5.53
2017-10-20T18:17:33.432Z,5.47
2017-10-20T18:20:01.017Z,6.03
2017-10-20T18:22:28.605Z,5.53
2017-10-20T18:24:58.074Z,8.90
2017-10-20T18:27:25.612Z,5.25
2017-10-20T18:29:53.181Z,7.53
2017-10-20T18:32:20.825Z,4.90
2017-10-20T18:34:48.366Z,6.40
2017-10-20T18:37:16.722Z,5.18
2017-10-20T18:39:44.310Z,7.30
2017-10-20T18:42:11.961Z,10.85
2017-10-20T18:44:40.266Z,6.05
2017-10-20T18:47:07.847Z,6.57
2017-10-20T18:49:35.386Z,4.75
2017-10-20T18:52:02.934Z,9.82
2017-10-20T18:54:30.594Z,7.40
2017-10-20T18:56:58.189Z,7.53
2017-10-20T18:59:25.770Z,5.55
2017-10-20T19:01:53.338Z,6.95
2017-10-20T19:04:20.921Z,5.87
2017-10-20T19:06:49.227Z,5.95
2017-10-20T19:09:17.633Z,4.70
2017-10-20T19:11:45.165Z,5.65
2017-10-20T19:14:12.703Z,7.28
2017-10-20T19:16:41.534Z,9.18
2017-10-20T19:19:09.150Z,8.68
2017-10-20T19:21:36.733Z,4.85
2017-10-20T19:24:04.325Z,7.00
2017-10-20T19:32:53.376Z,7.50
2017-10-20T19:35:22.088Z,4.68
2017-10-20T19:43:28.370Z,10.00
2017-10-20T19:45:56.043Z,7.30
2017-10-20T19:48:25.230Z,4.25
2017-10-20T19:50:52.782Z,4.28
2017-10-20T19:53:21.108Z,10.93
2017-10-20T19:55:48.894Z,5.32
2017-10-20T19:58:16.431Z,4.72
2017-10-20T20:00:44.026Z,9.30
2017-10-20T20:03:11.569Z,4.07
2017-10-20T20:05:39.102Z,6.03
2017-10-20T20:08:06.682Z,6.28
2017-10-20T20:10:38.034Z,7.18
2017-10-20T20:13:05.575Z,13.38
2017-10-20T20:15:33.339Z,5.43
2017-10-20T20:18:00.881Z,8.63
2017-10-20T20:20:28.815Z,8.07
2017-10-20T20:22:56.354Z,5.55
2017-10-20T20:25:23.890Z,12.37
2017-10-20T20:27:51.469Z,6.72
2017-10-20T20:30:20.254Z,6.82
2017-10-20T20:32:53.639Z,6.90
2017-10-20T20:35:24.894Z,9.20
2017-10-20T20:37:52.441Z,6.82
2017-10-20T20:40:20.031Z,6.45
2017-10-20T20:42:47.574Z,10.80
2017-10-20T20:45:15.110Z,4.57
2017-10-20T20:47:42.694Z,5.53
2017-10-20T20:50:10.229Z,6.47
2017-10-20T20:52:38.134Z,8.60
2017-10-20T20:55:05.682Z,11.25
2017-10-20T20:57:33.215Z,7.53
2017-10-20T21:00:01.110Z,6.12
2017-10-20T21:02:28.654Z,5.78
2017-10-20T21:04:56.195Z,9.07
2017-10-20T21:07:23.794Z,5.85
2017-10-20T21:09:51.337Z,6.47
2017-10-20T21:12:18.895Z,7.62
2017-10-20T21:14:46.649Z,12.05
2017-10-20T21:17:14.214Z,12.02
2017-10-20T21:19:41.825Z,7.75
2017-10-20T21:22:19.827Z,9.32
2017-10-20T21:24:47.604Z,6.55
2017-10-20T21:27:15.935Z,7.47
2017-10-20T21:29:43.899Z,7.03
2017-10-20T21:32:11.456Z,9.07
2017-10-20T21:34:39.165Z,8.15
2017-10-20T21:37:07.581Z,13.40
2017-10-20T21:39:35.169Z,8.50
2017-10-20T21:42:02.703Z,7.35
2017-10-20T21:44:30.256Z,7.32
2017-10-20T21:46:57.843Z,5.82
2017-10-20T21:49:25.391Z,6.78
2017-10-20T21:51:53.286Z,5.62
2017-10-20T21:54:20.841Z,6.60
2017-10-20T21:56:48.379Z,6.25
2017-10-20T21:59:16.126Z,7.47
2017-10-20T22:01:43.719Z,9.88
2017-10-20T22:04:11.262Z,8.13
2017-10-20T22:06:41.515Z,12.70
2017-10-20T22:09:09.054Z,8.30
2017-10-20T22:11:36.600Z,9.90
2017-10-20T22:14:05.566Z,6.68
2017-10-20T22:16:33.870Z,5.75
2017-10-20T22:19:01.612Z,6.45
2017-10-20T22:21:29.966Z,6.10
2017-10-20T22:23:57.503Z,9.07
2017-10-20T22:26:25.074Z,6.90
2017-10-20T22:28:52.935Z,7.22
2017-10-20T22:31:20.620Z,5.75
2017-10-20T22:33:48.166Z,6.22
2017-10-20T22:36:15.814Z,6.93
2017-10-20T22:38:43.395Z,7.82
2017-10-20T22:41:11.003Z,11.38
2017-10-20T22:43:38.550Z,8.43
2017-10-20T22:46:06.141Z,3.42
2017-10-20T22:48:33.725Z,5.90
2017-10-20T22:51:01.308Z,8.95
2017-10-20T22:53:28.863Z,4.72
2017-10-20T22:55:56.514Z,7.35
2017-10-20T22:58:24.060Z,4.40
2017-10-20T23:00:51.638Z,5.03
2017-10-20T23:03:19.198Z,5.80
2017-10-20T23:05:46.783Z,9.10
2017-10-20T23:08:15.130Z,5.22
2017-10-20T23:10:42.673Z,7.57
2017-10-20T23:13:12.083Z,6.00
2017-10-20T23:15:39.626Z,4.85
2017-10-20T23:18:07.161Z,7.47
2017-10-20T23:20:34.893Z,6.43
2017-10-20T23:23:02.477Z,5.85
2017-10-20T23:25:30.781Z,8.82
2017-10-20T23:27:58.366Z,5.45
2017-10-20T23:30:25.924Z,7.78
2017-10-20T23:32:55.319Z,6.22
2017-10-20T23:35:22.872Z,4.43
2017-10-20T23:37:50.449Z,6.25
2017-10-20T23:40:18.038Z,4.95
2017-10-20T23:42:45.574Z,4.47
2017-10-20T23:45:13.505Z,8.23
2017-10-20T23:47:41.045Z,5.68
2017-10-20T23:50:09.359Z,3.92
2017-10-20T23:52:37.454Z,6.03
2017-10-20T23:55:04.990Z,6.12
2017-10-20T23:57:32.717Z,5.68
